Time;durP1;ratioP1;P1;durP2;ratioP2;P2;SDS_P1;SDS_P2;PMS_P1;PMS_P2;Temp;Humidity;BMP_temperature;BMP_pressure;BME280_temperature;BME280_humidity;BME280_pressure;Samples;Min_cycle;Max_cycle;Signal;HPM_P1;HPM_P2
2022/09/15 00:01:38;;;;;;;0.10;0.10;;;;;;;;;;4998038;28;20045;-87
2022/09/15 00:04:04;;;;;;;0.10;0.10;;;;;;;;;;5014371;28;20072;-87
2022/09/15 00:06:30;;;;;;;0.20;0.20;;;;;;;;;;5014334;28;20453;-87
2022/09/15 00:08:57;;;;;;;0.10;0.10;;;;;;;;;;4998148;28;20042;-86
2022/09/15 00:11:24;;;;;;;0.10;0.10;;;;;;;;;;5024023;28;20444;-87
2022/09/15 00:13:50;;;;;;;0.10;0.10;;;;;;;;;;5030790;28;20048;-86
2022/09/15 00:16:16;;;;;;;0.10;0.10;;;;;;;;;;5030685;28;20049;-86
2022/09/15 00:18:42;;;;;;;0.10;0.10;;;;;;;;;;5030926;28;20057;-89
2022/09/15 00:21:13;;;;;;;0.10;0.10;;;;;;;;;;5030781;28;20049;-88
2022/09/15 00:23:39;;;;;;;0.10;0.10;;;;;;;;;;5030807;28;20046;-87
2022/09/15 00:26:08;;;;;;;0.10;0.10;;;;;;;;;;5001024;28;20133;-88
2022/09/15 00:28:34;;;;;;;0.10;0.10;;;;;;;;;;5002019;28;20491;-88
2022/09/15 00:31:03;;;;;;;0.10;0.10;;;;;;;;;;5001834;28;20470;-88
2022/09/15 00:33:29;;;;;;;0.10;0.10;;;;;;;;;;5034795;28;20049;-88
2022/09/15 00:35:55;;;;;;;0.10;0.10;;;;;;;;;;5034378;28;20517;-88
2022/09/15 00:38:21;;;;;;;0.10;0.10;;;;;;;;;;5034374;28;20369;-88
2022/09/15 00:40:51;;;;;;;0.10;0.10;;;;;;;;;;5001892;28;20037;-88
2022/09/15 00:43:17;;;;;;;0.10;0.10;;;;;;;;;;5001684;28;20500;-89
2022/09/15 00:45:44;;;;;;;0.10;0.10;;;;;;;;;;5034608;28;20029;-89
2022/09/15 00:48:12;;;;;;;0.10;0.10;;;;;;;;;;5001715;28;20396;-90
2022/09/15 00:50:38;;;;;;;0.10;0.10;;;;;;;;;;5002959;28;20033;-90
2022/09/15 00:53:04;;;;;;;0.10;0.10;;;;;;;;;;5035900;28;20038;-90
2022/09/15 00:55:35;;;;;;;0.10;0.10;;;;;;;;;;5001385;28;20134;-88
2022/09/15 00:58:12;;;;;;;0.10;0.10;;;;;;;;;;5034101;28;20423;-90
2022/09/15 01:00:40;;;;;;;0.10;0.10;;;;;;;;;;5034122;28;20045;-88
2022/09/15 01:03:05;;;;;;;0.10;0.10;;;;;;;;;;5017176;28;20090;-87
2022/09/15 01:05:40;;;;;;;0.20;0.20;;;;;;;;;;5033766;28;20053;-88
2022/09/15 01:08:20;;;;;;;0.10;0.10;;;;;;;;;;5033869;28;20037;-89
2022/09/15 01:10:46;;;;;;;0.10;0.10;;;;;;;;;;5000841;28;20136;-88
2022/09/15 01:13:13;;;;;;;0.10;0.10;;;;;;;;;;5033756;28;20125;-88
2022/09/15 01:15:58;;;;;;;0.10;0.10;;;;;;;;;;5033998;28;20095;-88
2022/09/15 01:18:27;;;;;;;0.10;0.10;;;;;;;;;;5017073;28;20037;-89
2022/09/15 01:21:16;;;;;;;0.10;0.10;;;;;;;;;;5033363;28;20038;-88
2022/09/15 01:23:43;;;;;;;0.10;0.10;;;;;;;;;;5004936;28;20068;-88
2022/09/15 01:26:18;;;;;;;0.20;0.20;;;;;;;;;;5033534;28;20396;-88
2022/09/15 01:28:44;;;;;;;0.10;0.10;;;;;;;;;;5017134;28;20049;-88
2022/09/15 01:31:15;;;;;;;0.10;0.10;;;;;;;;;;5033600;28;20044;-89
2022/09/15 01:34:00;;;;;;;0.10;0.10;;;;;;;;;;5016786;28;20385;-89
2022/09/15 01:36:47;;;;;;;0.10;0.10;;;;;;;;;;5032127;28;20046;-89
2022/09/15 01:39:14;;;;;;;0.10;0.10;;;;;;;;;;5000618;28;20071;-89
2022/09/15 01:41:45;;;;;;;0.10;0.10;;;;;;;;;;5033472;28;20095;-89
2022/09/15 01:44:12;;;;;;;0.10;0.10;;;;;;;;;;5033312;28;20472;-89
2022/09/15 01:46:45;;;;;;;0.10;0.10;;;;;;;;;;5033262;28;20095;-89
2022/09/15 01:49:14;;;;;;;0.10;0.10;;;;;;;;;;5000929;28;20095;-89
2022/09/15 01:51:40;;;;;;;0.10;0.10;;;;;;;;;;5016292;28;20496;-89
2022/09/15 01:54:06;;;;;;;0.10;0.10;;;;;;;;;;5000111;28;20056;-89
2022/09/15 01:56:32;;;;;;;0.10;0.10;;;;;;;;;;5032860;28;20487;-88
2022/09/15 01:58:58;;;;;;;0.10;0.10;;;;;;;;;;5000192;28;20105;-89
2022/09/15 02:01:48;;;;;;;0.10;0.10;;;;;;;;;;5000172;28;20133;-88
2022/09/15 02:04:35;;;;;;;0.10;0.10;;;;;;;;;;5000625;28;20444;-88
2022/09/15 02:07:06;;;;;;;0.10;0.10;;;;;;;;;;5000160;28;20037;-88
2022/09/15 02:09:40;;;;;;;0.10;0.10;;;;;;;;;;5016260;28;20041;-88
2022/09/15 02:12:14;;;;;;;0.10;0.10;;;;;;;;;;4999652;28;20141;-89
2022/09/15 02:14:46;;;;;;;0.10;0.10;;;;;;;;;;5032632;28;20038;-89
2022/09/15 02:17:13;;;;;;;0.10;0.10;;;;;;;;;;4999965;28;20041;-89
2022/09/15 02:19:40;;;;;;;0.10;0.10;;;;;;;;;;5032898;28;20069;-88
2022/09/15 02:22:12;;;;;;;0.10;0.10;;;;;;;;;;5032773;28;20042;-87
2022/09/15 02:24:39;;;;;;;0.10;0.10;;;;;;;;;;5032398;28;20338;-87
2022/09/15 02:27:07;;;;;;;0.10;0.10;;;;;;;;;;5032705;28;20045;-87
2022/09/15 02:29:33;;;;;;;0.10;0.10;;;;;;;;;;5032375;28;20124;-87
2022/09/15 02:32:01;;;;;;;0.10;0.10;;;;;;;;;;5032010;28;20068;-87
2022/09/15 02:34:29;;;;;;;2.80;0.40;;;;;;;;;;5015944;28;20042;-87
2022/09/15 02:36:55;;;;;;;0.10;0.10;;;;;;;;;;4999427;28;20049;-87
2022/09/15 02:39:21;;;;;;;0.15;0.15;;;;;;;;;;5032150;28;20049;-86
2022/09/15 02:41:47;;;;;;;0.10;0.10;;;;;;;;;;4999472;28;20098;-87
2022/09/15 02:44:14;;;;;;;0.20;0.20;;;;;;;;;;5031957;28;20045;-87
2022/09/15 02:46:40;;;;;;;0.20;0.20;;;;;;;;;;5032070;28;20477;-87
2022/09/15 02:49:06;;;;;;;0.20;0.20;;;;;;;;;;5031815;28;20087;-87
2022/09/15 02:51:32;;;;;;;0.10;0.10;;;;;;;;;;5015219;28;20041;-87
2022/09/15 02:53:58;;;;;;;0.10;0.10;;;;;;;;;;5031928;28;20547;-88
2022/09/15 02:56:24;;;;;;;0.10;0.10;;;;;;;;;;5031766;28;20045;-87
2022/09/15 02:58:50;;;;;;;0.10;0.10;;;;;;;;;;5031663;28;20481;-86
2022/09/15 03:01:16;;;;;;;0.10;0.10;;;;;;;;;;5031864;28;20377;-89
2022/09/15 03:03:43;;;;;;;0.10;0.10;;;;;;;;;;5031751;28;20048;-88
2022/09/15 03:06:19;;;;;;;0.10;0.10;;;;;;;;;;5031904;28;20038;-87
2022/09/15 03:08:55;;;;;;;0.10;0.10;;;;;;;;;;5000441;28;20446;-87
2022/09/15 03:11:22;;;;;;;0.10;0.10;;;;;;;;;;4998461;28;20051;-87
2022/09/15 03:13:48;;;;;;;0.20;0.20;;;;;;;;;;5032195;28;20046;-87
2022/09/15 03:16:14;;;;;;;0.10;0.10;;;;;;;;;;5031490;28;20052;-87
2022/09/15 03:18:40;;;;;;;0.10;0.10;;;;;;;;;;4998616;28;20041;-87
2022/09/15 03:21:07;;;;;;;0.10;0.10;;;;;;;;;;5031402;28;20037;-87
2022/09/15 03:23:33;;;;;;;0.10;0.10;;;;;;;;;;4998527;28;20056;-87
2022/09/15 03:25:59;;;;;;;0.10;0.10;;;;;;;;;;5031211;28;20045;-87
2022/09/15 03:28:25;;;;;;;0.10;0.10;;;;;;;;;;4998749;28;20412;-87
2022/09/15 03:30:52;;;;;;;0.10;0.10;;;;;;;;;;4998481;28;20042;-87
2022/09/15 03:33:18;;;;;;;0.10;0.10;;;;;;;;;;4998602;28;20068;-87
2022/09/15 03:35:47;;;;;;;0.10;0.10;;;;;;;;;;5031186;28;20507;-87
2022/09/15 03:38:13;;;;;;;0.10;0.10;;;;;;;;;;4998625;28;20073;-87
2022/09/15 03:40:41;;;;;;;0.10;0.10;;;;;;;;;;5031005;28;20037;-87
2022/09/15 03:43:07;;;;;;;0.10;0.10;;;;;;;;;;5014509;28;20041;-87
2022/09/15 03:45:33;;;;;;;0.10;0.10;;;;;;;;;;5030881;28;20052;-87
2022/09/15 03:47:59;;;;;;;0.10;0.10;;;;;;;;;;5030838;28;20052;-87
2022/09/15 03:50:25;;;;;;;0.10;0.10;;;;;;;;;;5030962;28;20037;-87
2022/09/15 03:52:51;;;;;;;0.10;0.10;;;;;;;;;;4998251;28;20378;-88
2022/09/15 03:55:17;;;;;;;0.10;0.10;;;;;;;;;;4998163;28;20136;-87
2022/09/15 03:57:43;;;;;;;0.10;0.10;;;;;;;;;;4998304;28;20148;-88
2022/09/15 04:00:10;;;;;;;0.10;0.10;;;;;;;;;;4997456;28;20045;-88
2022/09/15 04:02:36;;;;;;;0.10;0.10;;;;;;;;;;4997947;28;20500;-89
2022/09/15 04:05:02;;;;;;;0.10;0.10;;;;;;;;;;4997944;28;20037;-89
2022/09/15 04:07:28;;;;;;;0.10;0.10;;;;;;;;;;4998319;28;20064;-89
2022/09/15 04:09:54;;;;;;;0.10;0.10;;;;;;;;;;5030530;28;20465;-87
2022/09/15 04:12:20;;;;;;;0.13;0.13;;;;;;;;;;5014226;28;20150;-89
2022/09/15 04:14:46;;;;;;;0.10;0.10;;;;;;;;;;4997919;28;20051;-89
2022/09/15 04:17:14;;;;;;;0.10;0.10;;;;;;;;;;5014155;28;20045;-89
2022/09/15 04:19:40;;;;;;;0.10;0.10;;;;;;;;;;4982344;28;20041;-89
2022/09/15 04:22:06;;;;;;;0.10;0.10;;;;;;;;;;4981484;28;20045;-88
2022/09/15 04:24:32;;;;;;;0.10;0.10;;;;;;;;;;4981457;28;20042;-88
2022/09/15 04:26:58;;;;;;;0.10;0.10;;;;;;;;;;4981597;28;20042;-89
2022/09/15 04:29:25;;;;;;;0.10;0.10;;;;;;;;;;4981671;28;20052;-88
2022/09/15 04:31:51;;;;;;;0.10;0.10;;;;;;;;;;5014001;28;20471;-88
2022/09/15 04:34:17;;;;;;;0.10;0.10;;;;;;;;;;4997885;28;20124;-89
2022/09/15 04:36:44;;;;;;;0.10;0.10;;;;;;;;;;4997858;28;20092;-87
2022/09/15 04:39:09;;;;;;;0.10;0.10;;;;;;;;;;4997785;28;20485;-87
2022/09/15 04:41:35;;;;;;;0.10;0.10;;;;;;;;;;5014110;28;20103;-88
2022/09/15 04:44:02;;;;;;;0.10;0.10;;;;;;;;;;4997642;28;20484;-88
2022/09/15 04:46:27;;;;;;;0.10;0.10;;;;;;;;;;4997639;28;20492;-88
2022/09/15 04:48:54;;;;;;;0.10;0.10;;;;;;;;;;4981467;28;20048;-89
2022/09/15 04:51:21;;;;;;;0.10;0.10;;;;;;;;;;4981282;28;20109;-89
2022/09/15 04:53:47;;;;;;;0.10;0.10;;;;;;;;;;4997778;28;20455;-89
2022/09/15 04:56:14;;;;;;;0.10;0.10;;;;;;;;;;4982039;28;20072;-88
2022/09/15 04:58:41;;;;;;;0.10;0.10;;;;;;;;;;4981737;28;20041;-88
2022/09/15 05:01:12;;;;;;;0.10;0.10;;;;;;;;;;4981400;28;20045;-90
2022/09/15 05:03:38;;;;;;;0.10;0.10;;;;;;;;;;4997569;28;20053;-88
2022/09/15 05:06:07;;;;;;;0.10;0.10;;;;;;;;;;4981431;28;20464;-89
2022/09/15 05:08:33;;;;;;;0.10;0.10;;;;;;;;;;4997385;28;20038;-89
2022/09/15 05:11:03;;;;;;;0.10;0.10;;;;;;;;;;4981300;28;20056;-89
2022/09/15 05:13:29;;;;;;;0.10;0.10;;;;;;;;;;4984239;28;20041;-88
2022/09/15 05:15:55;;;;;;;0.10;0.10;;;;;;;;;;5000965;28;20099;-89
2022/09/15 05:18:21;;;;;;;0.10;0.10;;;;;;;;;;4984412;28;20033;-89
2022/09/15 05:20:47;;;;;;;0.10;0.10;;;;;;;;;;4984715;28;20484;-89
2022/09/15 05:23:13;;;;;;;0.10;0.10;;;;;;;;;;4984667;28;20128;-89
2022/09/15 05:25:39;;;;;;;0.10;0.10;;;;;;;;;;4984435;28;20042;-89
2022/09/15 05:28:06;;;;;;;0.10;0.10;;;;;;;;;;4984497;28;20041;-89
2022/09/15 05:30:32;;;;;;;0.10;0.10;;;;;;;;;;4984388;28;20040;-89
2022/09/15 05:32:58;;;;;;;0.10;0.10;;;;;;;;;;4984331;28;20041;-88
2022/09/15 05:35:24;;;;;;;0.10;0.10;;;;;;;;;;4984203;28;20045;-89
2022/09/15 05:37:50;;;;;;;0.10;0.10;;;;;;;;;;5016728;28;20037;-89
2022/09/15 05:40:19;;;;;;;0.10;0.10;;;;;;;;;;5000406;28;20056;-89
2022/09/15 05:42:45;;;;;;;0.10;0.10;;;;;;;;;;4984464;28;20038;-89
2022/09/15 05:45:11;;;;;;;0.10;0.10;;;;;;;;;;4984140;28;20129;-88
2022/09/15 05:47:37;;;;;;;0.10;0.10;;;;;;;;;;5016493;28;20481;-88
2022/09/15 05:50:04;;;;;;;0.10;0.10;;;;;;;;;;5000569;28;20095;-87
2022/09/15 05:52:29;;;;;;;0.10;0.10;;;;;;;;;;5000403;28;20045;-88
2022/09/15 05:54:55;;;;;;;0.10;0.10;;;;;;;;;;5000370;28;20509;-88
2022/09/15 05:57:21;;;;;;;0.15;0.15;;;;;;;;;;4985040;28;20049;-87
2022/09/15 05:59:47;;;;;;;0.10;0.10;;;;;;;;;;5000720;28;20038;-88
2022/09/15 06:02:14;;;;;;;0.10;0.10;;;;;;;;;;5000156;28;20048;-88
2022/09/15 06:04:40;;;;;;;0.00;0.00;;;;;;;;;;5000167;28;20103;-89
2022/09/15 06:07:06;;;;;;;0.10;0.10;;;;;;;;;;5003013;28;20071;-87
2022/09/15 06:09:33;;;;;;;0.10;0.10;;;;;;;;;;5030932;28;20037;-87
2022/09/15 06:11:59;;;;;;;0.10;0.10;;;;;;;;;;5023238;28;20053;-87
2022/09/15 06:14:25;;;;;;;0.28;0.28;;;;;;;;;;5037856;28;20045;-87
2022/09/15 06:16:51;;;;;;;0.10;0.10;;;;;;;;;;5016438;28;20045;-89
2022/09/15 06:19:18;;;;;;;0.10;0.10;;;;;;;;;;5009487;28;20051;-89
2022/09/15 06:21:44;;;;;;;0.10;0.10;;;;;;;;;;4999700;28;20049;-85
2022/09/15 06:24:11;;;;;;;0.10;0.10;;;;;;;;;;5015394;28;20048;-90
2022/09/15 06:26:37;;;;;;;0.10;0.10;;;;;;;;;;4999687;28;20084;-90
2022/09/15 06:29:03;;;;;;;0.10;0.10;;;;;;;;;;4999621;28;20042;-89
2022/09/15 06:31:30;;;;;;;0.10;0.10;;;;;;;;;;4999587;28;20042;-88
2022/09/15 06:33:56;;;;;;;0.10;0.10;;;;;;;;;;5032475;28;20072;-87
2022/09/15 06:36:26;;;;;;;0.10;0.10;;;;;;;;;;5032825;28;20489;-88
2022/09/15 06:38:52;;;;;;;0.10;0.10;;;;;;;;;;5032236;28;20045;-88
2022/09/15 06:41:18;;;;;;;1.10;1.10;;;;;;;;;;5032030;28;20404;-87
2022/09/15 06:43:44;;;;;;;0.10;0.10;;;;;;;;;;5031836;28;20041;-86
2022/09/15 06:46:11;;;;;;;0.10;0.10;;;;;;;;;;5031839;28;20507;-86
2022/09/15 06:48:37;;;;;;;0.10;0.10;;;;;;;;;;5032361;28;20393;-86
2022/09/15 06:51:03;;;;;;;0.10;0.10;;;;;;;;;;5031883;28;20048;-85
2022/09/15 06:53:30;;;;;;;0.10;0.10;;;;;;;;;;4999242;28;20041;-87
2022/09/15 06:56:00;;;;;;;0.10;0.10;;;;;;;;;;5032979;28;20463;-87
2022/09/15 06:58:26;;;;;;;0.10;0.10;;;;;;;;;;4998937;28;20040;-87
2022/09/15 07:00:52;;;;;;;0.10;0.10;;;;;;;;;;5031863;28;20037;-88
2022/09/15 07:03:18;;;;;;;0.10;0.10;;;;;;;;;;5031700;28;20045;-88
2022/09/15 07:05:45;;;;;;;0.10;0.10;;;;;;;;;;5031486;28;20133;-88
2022/09/15 07:08:11;;;;;;;0.68;0.50;;;;;;;;;;4998879;28;20037;-89
2022/09/15 07:10:37;;;;;;;0.10;0.10;;;;;;;;;;5031366;28;20093;-87
2022/09/15 07:13:03;;;;;;;0.10;0.10;;;;;;;;;;5007333;28;20497;-92
2022/09/15 07:15:42;;;;;;;0.25;0.25;;;;;;;;;;4979729;28;20077;-94
2022/09/15 07:18:08;;;;;;;0.10;0.10;;;;;;;;;;4986044;28;20116;-89
2022/09/15 07:20:34;;;;;;;0.10;0.10;;;;;;;;;;5031346;28;20455;-88
2022/09/15 07:23:00;;;;;;;1.48;0.20;;;;;;;;;;5006802;28;20048;-88
2022/09/15 07:25:26;;;;;;;0.10;0.10;;;;;;;;;;5014564;28;20037;-88
2022/09/15 07:27:52;;;;;;;0.10;0.10;;;;;;;;;;5014828;28;20033;-88
2022/09/15 07:30:18;;;;;;;0.10;0.10;;;;;;;;;;4998499;28;20452;-88
2022/09/15 07:32:44;;;;;;;0.10;0.10;;;;;;;;;;5019749;28;20037;-88
2022/09/15 07:35:10;;;;;;;0.10;0.10;;;;;;;;;;5030253;28;20046;-88
2022/09/15 07:37:36;;;;;;;0.10;0.10;;;;;;;;;;5030937;28;20049;-88
2022/09/15 07:40:02;;;;;;;0.10;0.10;;;;;;;;;;5030946;28;20106;-88
2022/09/15 07:42:28;;;;;;;0.10;0.10;;;;;;;;;;5014371;28;20044;-87
2022/09/15 07:44:54;;;;;;;0.10;0.10;;;;;;;;;;5030710;28;20038;-87
2022/09/15 07:47:20;;;;;;;0.10;0.10;;;;;;;;;;5031212;28;20041;-86
2022/09/15 07:49:46;;;;;;;0.10;0.10;;;;;;;;;;5031209;28;20037;-86
2022/09/15 07:52:12;;;;;;;0.10;0.10;;;;;;;;;;5030818;28;20034;-87
2022/09/15 07:54:38;;;;;;;0.10;0.10;;;;;;;;;;5030729;28;20572;-86
2022/09/15 07:57:05;;;;;;;0.10;0.10;;;;;;;;;;5032199;28;20051;-86
2022/09/15 07:59:31;;;;;;;0.10;0.10;;;;;;;;;;5030899;28;20042;-86
2022/09/15 08:01:57;;;;;;;0.10;0.10;;;;;;;;;;5030699;28;20045;-86
2022/09/15 08:04:23;;;;;;;0.10;0.10;;;;;;;;;;5014253;28;20128;-86
2022/09/15 08:06:49;;;;;;;1.90;0.82;;;;;;;;;;5030977;28;20485;-88
2022/09/15 08:09:16;;;;;;;0.10;0.10;;;;;;;;;;5030588;28;20049;-87
2022/09/15 08:11:42;;;;;;;0.20;0.20;;;;;;;;;;5030396;28;20140;-86
2022/09/15 08:14:08;;;;;;;0.10;0.10;;;;;;;;;;5030688;28;20056;-86
2022/09/15 08:16:34;;;;;;;0.10;0.10;;;;;;;;;;5030508;28;20054;-85
2022/09/15 08:19:00;;;;;;;0.10;0.10;;;;;;;;;;4997925;28;20393;-88
2022/09/15 08:21:27;;;;;;;0.10;0.10;;;;;;;;;;5030373;28;20045;-86
2022/09/15 08:23:54;;;;;;;0.10;0.10;;;;;;;;;;5030102;28;20500;-87
2022/09/15 08:26:20;;;;;;;0.10;0.10;;;;;;;;;;5030625;28;20049;-84
2022/09/15 08:28:46;;;;;;;0.10;0.10;;;;;;;;;;5013802;28;20133;-87
2022/09/15 08:31:12;;;;;;;0.10;0.10;;;;;;;;;;5030379;28;20142;-87
2022/09/15 08:33:40;;;;;;;0.10;0.10;;;;;;;;;;5030446;28;20042;-90
2022/09/15 08:36:07;;;;;;;0.10;0.10;;;;;;;;;;5030302;28;20447;-90
2022/09/15 08:38:33;;;;;;;0.10;0.10;;;;;;;;;;5030557;28;20145;-91
2022/09/15 08:41:00;;;;;;;0.10;0.10;;;;;;;;;;5030478;28;20512;-89
2022/09/15 08:43:26;;;;;;;0.10;0.10;;;;;;;;;;4997860;28;20388;-90
2022/09/15 08:45:57;;;;;;;0.10;0.10;;;;;;;;;;4998495;28;20037;-89
2022/09/15 08:48:26;;;;;;;0.10;0.10;;;;;;;;;;5017729;28;20124;-89
2022/09/15 08:50:52;;;;;;;0.10;0.10;;;;;;;;;;5034223;28;20041;-90
2022/09/15 08:53:17;;;;;;;0.10;0.10;;;;;;;;;;5001319;28;20451;-88
2022/09/15 08:55:50;;;;;;;0.65;0.30;;;;;;;;;;5034377;28;20052;-88
2022/09/15 08:58:20;;;;;;;0.10;0.10;;;;;;;;;;5024987;28;20124;-86
2022/09/15 09:00:47;;;;;;;0.10;0.10;;;;;;;;;;5001042;28;20045;-86
2022/09/15 09:03:28;;;;;;;0.15;0.15;;;;;;;;;;4985002;28;20072;-88
2022/09/15 09:06:00;;;;;;;0.10;0.10;;;;;;;;;;5015835;28;20050;-88
2022/09/15 09:08:29;;;;;;;0.10;0.10;;;;;;;;;;5017838;28;20045;-89
2022/09/15 09:11:15;;;;;;;0.10;0.10;;;;;;;;;;5017115;28;20062;-90
2022/09/15 09:13:44;;;;;;;0.15;0.15;;;;;;;;;;5001276;28;20045;-89
2022/09/15 09:16:10;;;;;;;0.10;0.10;;;;;;;;;;5017288;28;20045;-89
2022/09/15 09:18:45;;;;;;;0.35;0.35;;;;;;;;;;5033988;28;20034;-89
2022/09/15 09:21:14;;;;;;;0.10;0.10;;;;;;;;;;5016998;28;20489;-89
2022/09/15 09:23:52;;;;;;;0.10;0.10;;;;;;;;;;5033290;28;20496;-88
2022/09/15 09:26:21;;;;;;;0.20;0.20;;;;;;;;;;5000557;28;20559;-88
2022/09/15 09:28:49;;;;;;;0.10;0.10;;;;;;;;;;5000522;28;20103;-87
2022/09/15 09:31:22;;;;;;;0.10;0.10;;;;;;;;;;5017408;28;20118;-89
2022/09/15 09:33:57;;;;;;;0.10;0.10;;;;;;;;;;5017432;28;20037;-89
2022/09/15 09:36:23;;;;;;;0.20;0.20;;;;;;;;;;5016981;28;20041;-89
2022/09/15 09:38:51;;;;;;;0.10;0.10;;;;;;;;;;5000229;28;20511;-89
2022/09/15 09:41:18;;;;;;;0.10;0.10;;;;;;;;;;5033340;28;20563;-88
2022/09/15 09:43:45;;;;;;;0.10;0.10;;;;;;;;;;4999824;28;20527;-88
2022/09/15 09:46:16;;;;;;;0.10;0.10;;;;;;;;;;5000133;28;20044;-89
2022/09/15 09:49:10;;;;;;;0.20;0.20;;;;;;;;;;5000535;28;20385;-89
2022/09/15 09:51:36;;;;;;;0.10;0.10;;;;;;;;;;5012293;28;20049;-88
2022/09/15 09:54:15;;;;;;;0.10;0.10;;;;;;;;;;5016384;28;20052;-89
2022/09/15 09:56:44;;;;;;;0.10;0.10;;;;;;;;;;5000844;28;20503;-88
2022/09/15 09:59:29;;;;;;;0.10;0.10;;;;;;;;;;4999440;28;20038;-88
2022/09/15 10:02:10;;;;;;;0.10;0.10;;;;;;;;;;5015542;28;20394;-88
2022/09/15 10:04:36;;;;;;;0.10;0.10;;;;;;;;;;4999668;28;20046;-89
2022/09/15 10:07:02;;;;;;;0.10;0.10;;;;;;;;;;4999823;28;20038;-88
2022/09/15 10:09:28;;;;;;;0.10;0.10;;;;;;;;;;5032874;28;20037;-87
2022/09/15 10:11:57;;;;;;;0.10;0.10;;;;;;;;;;4985194;28;20428;-89
2022/09/15 10:14:27;;;;;;;0.10;0.10;;;;;;;;;;4983650;28;20124;-90
2022/09/15 10:16:56;;;;;;;0.10;0.10;;;;;;;;;;4999340;28;20037;-89
2022/09/15 10:19:22;;;;;;;0.20;0.20;;;;;;;;;;4999277;28;20045;-89
2022/09/15 10:21:48;;;;;;;0.10;0.10;;;;;;;;;;4983614;28;20048;-90
2022/09/15 10:24:27;;;;;;;0.10;0.10;;;;;;;;;;4999412;28;20049;-87
2022/09/15 10:27:05;;;;;;;0.10;0.10;;;;;;;;;;4999281;28;20037;-86
2022/09/15 10:29:37;;;;;;;0.10;0.10;;;;;;;;;;4983858;28;20212;-86
2022/09/15 10:32:16;;;;;;;0.10;0.10;;;;;;;;;;4999765;28;20041;-88
2022/09/15 10:34:42;;;;;;;0.10;0.10;;;;;;;;;;4983304;28;20144;-88
2022/09/15 10:37:20;;;;;;;0.10;0.10;;;;;;;;;;4999292;28;20046;-89
2022/09/15 10:39:53;;;;;;;0.10;0.10;;;;;;;;;;4986111;28;20095;-88
2022/09/15 10:42:29;;;;;;;0.10;0.10;;;;;;;;;;4983075;28;20080;-88
2022/09/15 10:44:56;;;;;;;0.10;0.10;;;;;;;;;;4999303;28;20041;-89
2022/09/15 10:47:42;;;;;;;0.10;0.10;;;;;;;;;;4999187;28;20043;-89
2022/09/15 10:50:15;;;;;;;0.10;0.10;;;;;;;;;;4999612;28;20053;-89
2022/09/15 10:52:59;;;;;;;0.10;0.10;;;;;;;;;;4982794;28;20503;-87
2022/09/15 10:55:55;;;;;;;0.10;0.10;;;;;;;;;;4998905;28;20045;-88
2022/09/15 10:58:36;;;;;;;0.13;0.13;;;;;;;;;;4978834;28;20053;-87
2022/09/15 11:01:22;;;;;;;0.20;0.20;;;;;;;;;;4998964;28;20041;-88
2022/09/15 11:04:13;;;;;;;0.30;0.20;;;;;;;;;;4950541;28;20381;-89
2022/09/15 11:06:55;;;;;;;0.10;0.10;;;;;;;;;;5002660;28;20405;-87
2022/09/15 11:09:45;;;;;;;1.20;0.40;;;;;;;;;;4998884;28;20075;-88
2022/09/15 11:12:11;;;;;;;0.10;0.10;;;;;;;;;;4986334;28;20061;-87
2022/09/15 11:14:49;;;;;;;0.10;0.10;;;;;;;;;;5015250;28;20132;-85
2022/09/15 11:17:34;;;;;;;0.20;0.20;;;;;;;;;;4982940;28;20045;-87
2022/09/15 11:20:11;;;;;;;0.20;0.20;;;;;;;;;;5015041;28;20045;-86
2022/09/15 11:22:51;;;;;;;0.10;0.10;;;;;;;;;;4998992;28;20508;-87
2022/09/15 11:25:17;;;;;;;0.10;0.10;;;;;;;;;;4998382;28;20045;-86
2022/09/15 11:27:55;;;;;;;0.10;0.10;;;;;;;;;;5014625;28;20044;-87
2022/09/15 11:30:22;;;;;;;0.10;0.10;;;;;;;;;;4998146;28;20041;-87
2022/09/15 11:33:07;;;;;;;0.10;0.10;;;;;;;;;;4998399;28;20063;-87
2022/09/15 11:35:33;;;;;;;0.10;0.10;;;;;;;;;;5014468;28;20064;-87
2022/09/15 11:38:01;;;;;;;0.38;0.38;;;;;;;;;;5014527;28;20437;-88
2022/09/15 11:40:34;;;;;;;0.10;0.10;;;;;;;;;;4998154;28;20414;-87
2022/09/15 11:43:03;;;;;;;0.10;0.10;;;;;;;;;;4998286;28;20049;-86
2022/09/15 11:45:30;;;;;;;0.10;0.10;;;;;;;;;;4997996;28;20045;-87
2022/09/15 11:47:57;;;;;;;0.10;0.10;;;;;;;;;;5014322;28;20095;-87
2022/09/15 11:50:33;;;;;;;0.30;0.30;;;;;;;;;;5014323;28;20176;-86
2022/09/15 11:53:01;;;;;;;0.10;0.10;;;;;;;;;;4998387;28;20056;-86
2022/09/15 11:55:30;;;;;;;0.10;0.10;;;;;;;;;;4998170;28;20461;-88
2022/09/15 11:57:56;;;;;;;0.10;0.10;;;;;;;;;;5014252;28;20503;-87
2022/09/15 12:00:22;;;;;;;0.10;0.10;;;;;;;;;;4997810;28;20081;-88
2022/09/15 12:03:00;;;;;;;0.10;0.10;;;;;;;;;;4981827;28;20392;-88
2022/09/15 12:05:29;;;;;;;0.10;0.10;;;;;;;;;;5014625;28;20378;-87
2022/09/15 12:08:14;;;;;;;0.10;0.10;;;;;;;;;;4997744;28;20050;-88
2022/09/15 12:10:41;;;;;;;0.10;0.10;;;;;;;;;;4985550;28;20046;-87
2022/09/15 12:13:07;;;;;;;0.10;0.10;;;;;;;;;;5014151;28;20037;-87
2022/09/15 12:15:33;;;;;;;0.10;0.10;;;;;;;;;;4997930;28;20064;-87
2022/09/15 12:18:01;;;;;;;0.10;0.10;;;;;;;;;;4998102;28;20060;-87
2022/09/15 12:20:48;;;;;;;0.30;0.30;;;;;;;;;;4997820;28;20049;-87
2022/09/15 12:23:20;;;;;;;0.10;0.10;;;;;;;;;;5034836;28;20133;-87
2022/09/15 12:25:55;;;;;;;0.10;0.10;;;;;;;;;;5018043;28;20103;-88
2022/09/15 12:28:21;;;;;;;0.10;0.10;;;;;;;;;;5034626;28;20042;-90
2022/09/15 12:30:47;;;;;;;0.10;0.10;;;;;;;;;;5017982;28;20080;-87
2022/09/15 12:33:32;;;;;;;0.10;0.10;;;;;;;;;;5001681;28;20037;-90
2022/09/15 12:36:18;;;;;;;0.10;0.10;;;;;;;;;;5017863;28;20064;-93
2022/09/15 12:38:48;;;;;;;0.77;0.77;;;;;;;;;;5017666;28;20076;-95
2022/09/15 12:41:14;;;;;;;0.10;0.10;;;;;;;;;;5034825;28;20052;-90
2022/09/15 12:43:40;;;;;;;0.10;0.10;;;;;;;;;;5001316;28;20157;-92
2022/09/15 12:46:13;;;;;;;0.20;0.20;;;;;;;;;;5034851;28;20041;-94
2022/09/15 12:48:41;;;;;;;0.10;0.10;;;;;;;;;;5018373;28;20746;-92
2022/09/15 12:53:57;;;;;;;0.20;0.20;;;;;;;;;;5401861;22;20111;-89
2022/09/15 12:56:52;;;;;;;0.10;0.10;;;;;;;;;;4984217;28;20552;-88
2022/09/15 12:59:28;;;;;;;0.10;0.10;;;;;;;;;;4982425;28;20054;-93
2022/09/15 13:01:54;;;;;;;0.10;0.10;;;;;;;;;;5015005;28;20042;-92
2022/09/15 13:04:39;;;;;;;0.10;0.10;;;;;;;;;;4982542;28;20476;-92
2022/09/15 13:07:14;;;;;;;0.10;0.10;;;;;;;;;;4998859;28;20081;-92
2022/09/15 13:10:00;;;;;;;0.10;0.10;;;;;;;;;;4998824;28;20098;-92
2022/09/15 13:12:26;;;;;;;;;;;;;;;;;;4998350;28;20046;-92
2022/09/15 13:14:52;;;;;;;0.10;0.10;;;;;;;;;;4998036;28;20277;-92
2022/09/15 13:17:22;;;;;;;0.10;0.10;;;;;;;;;;4981953;28;20104;-93
2022/09/15 13:19:54;;;;;;;0.10;0.10;;;;;;;;;;4981895;28;20494;-93
2022/09/15 13:22:28;;;;;;;0.10;0.10;;;;;;;;;;4998156;28;20076;-93
2022/09/15 13:25:00;;;;;;;0.10;0.10;;;;;;;;;;4982366;28;20041;-92
2022/09/15 13:27:39;;;;;;;0.10;0.10;;;;;;;;;;4998036;28;20445;-92
2022/09/15 13:30:21;;;;;;;0.10;0.10;;;;;;;;;;4981350;28;20489;-92
2022/09/15 13:33:02;;;;;;;0.10;0.10;;;;;;;;;;4996346;28;20382;-92
2022/09/15 13:35:40;;;;;;;0.10;0.10;;;;;;;;;;4998015;28;20085;-94
2022/09/15 13:38:17;;;;;;;0.10;0.10;;;;;;;;;;4997731;28;20128;-92
2022/09/15 13:41:02;;;;;;;0.10;0.10;;;;;;;;;;4981729;28;20401;-93
2022/09/15 13:43:31;;;;;;;0.20;0.20;;;;;;;;;;4998167;28;20506;-92
2022/09/15 13:46:02;;;;;;;0.10;0.10;;;;;;;;;;4997854;28;20085;-92
2022/09/15 13:48:35;;;;;;;0.88;0.15;;;;;;;;;;4981695;28;20046;-93
2022/09/15 13:51:01;;;;;;;0.10;0.10;;;;;;;;;;4997382;28;20038;-92
2022/09/15 13:53:33;;;;;;;0.10;0.10;;;;;;;;;;4987600;28;20394;-93
2022/09/15 13:56:01;;;;;;;0.10;0.10;;;;;;;;;;4997698;28;20052;-93
2022/09/15 13:58:27;;;;;;;0.10;0.10;;;;;;;;;;4997670;28;20523;-92
2022/09/15 14:00:58;;;;;;;0.10;0.10;;;;;;;;;;4997534;28;20048;-92
2022/09/15 14:03:26;;;;;;;0.10;0.10;;;;;;;;;;4996995;28;20124;-91
2022/09/15 14:05:53;;;;;;;0.10;0.10;;;;;;;;;;4996770;28;20042;-92
2022/09/15 14:08:23;;;;;;;0.10;0.10;;;;;;;;;;4997073;28;20038;-91
2022/09/15 14:10:57;;;;;;;0.10;0.10;;;;;;;;;;4996942;28;20096;-92
2022/09/15 14:13:23;;;;;;;0.20;0.20;;;;;;;;;;4997198;28;20038;-91
2022/09/15 14:16:28;;;;;;;0.10;0.10;;;;;;;;;;4996684;28;20042;-92
2022/09/15 14:18:57;;;;;;;0.10;0.10;;;;;;;;;;4940806;28;20555;-93
2022/09/15 14:21:27;;;;;;;0.35;0.35;;;;;;;;;;4941745;28;20598;-91
2022/09/15 14:23:53;;;;;;;0.10;0.10;;;;;;;;;;4969011;28;20071;-91
2022/09/15 14:26:29;;;;;;;0.10;0.10;;;;;;;;;;4997205;28;20034;-92
2022/09/15 14:29:01;;;;;;;0.20;0.20;;;;;;;;;;4997860;28;20042;-92
2022/09/15 14:31:31;;;;;;;0.10;0.10;;;;;;;;;;4996873;28;20037;-92
2022/09/15 14:33:57;;;;;;;0.10;0.10;;;;;;;;;;4997838;28;20076;-92
2022/09/15 14:36:31;;;;;;;0.10;0.10;;;;;;;;;;4997075;28;20053;-92
2022/09/15 14:39:03;;;;;;;0.10;0.10;;;;;;;;;;4996469;28;20113;-92
2022/09/15 14:41:36;;;;;;;0.10;0.10;;;;;;;;;;5012783;28;20540;-92
2022/09/15 14:44:20;;;;;;;0.10;0.10;;;;;;;;;;4996609;28;20157;-94
2022/09/15 14:46:46;;;;;;;0.10;0.10;;;;;;;;;;4996702;28;20129;-92
2022/09/15 14:49:13;;;;;;;0.10;0.10;;;;;;;;;;4997192;28;20074;-91
2022/09/15 14:51:40;;;;;;;0.10;0.10;;;;;;;;;;5004439;28;20053;-91
2022/09/15 14:54:09;;;;;;;0.20;0.20;;;;;;;;;;5007819;28;20118;-92
2022/09/15 14:56:36;;;;;;;0.10;0.10;;;;;;;;;;5003041;28;20519;-92
2022/09/15 14:59:04;;;;;;;0.10;0.10;;;;;;;;;;4996298;28;20494;-92
2022/09/15 15:01:37;;;;;;;0.20;0.20;;;;;;;;;;4996342;28;20097;-92